M I D A S
Marine Information and Data Acquisition System
Tripno 1261 of the Zeeleeuw from 2007-04-11 06:25:57 to 2007-04-11 16:50:56
Back to CruiseResearch ActivitiesStationsMapUnderway DataData graphs

EquipmentUnitsComments
TimeDGPSUTC
LatitudeDGPSDM.mWGS84
LongitudeDGPSDM.mWGS84
SpeedMeteo Stationm/sRelative wind speed
DirectionMeteo StationdegRelative wind direction
TemperatureMeteo Stationdeg CelciusAir temperature
PressureMeteo StationPaAtmospheric pressure
HumidityMeteo Station%Relative humidity
Missing or incorrect values are displayed as -999
Metereological data collected by the RV Zeeleeuw from 2007-04-11 06:25:11 to 2007-04-11 17:00:22
                                                                                    Next 1000 lines
Time Latitude Longitude Speed Direction Temperature Pressure Humidity
2007-04-11 06:25:21 51°13.602 2°56.099 2.5 30 10.9 102460 74
2007-04-11 06:25:26 51°13.602 2°56.099 1.9 16 10.9 102460 74
2007-04-11 06:25:31 51°13.601 2°56.099 1.3 10 10.9 102460 74
2007-04-11 06:25:36 51°13.601 2°56.099 1.2 14 10.9 102460 74
2007-04-11 06:25:41 51°13.601 2°56.1 1.7 15 10.9 102460 74
2007-04-11 06:25:46 51°13.602 2°56.1 1.5 13 10.9 102460 74
2007-04-11 06:25:51 51°13.602 2°56.1 2.1 24 10.9 102460 74
2007-04-11 06:25:56 51°13.601 2°56.1 2.2 24 10.9 102460 74
2007-04-11 06:26:01 51°13.601 2°56.1 1.9 24 10.9 102460 74
2007-04-11 06:26:06 51°13.601 2°56.099 2.1 19 10.9 102460 74
2007-04-11 06:26:11 51°13.601 2°56.1 1.6 12 10.9 102460 74
2007-04-11 06:26:16 51°13.601 2°56.1 1.8 5 10.9 102460 74
2007-04-11 06:26:21 51°13.602 2°56.1 1.4 15 10.9 102460 74
2007-04-11 06:26:26 51°13.601 2°56.1 1.7 21 10.9 102460 74
2007-04-11 06:26:31 51°13.601 2°56.099 1.7 21 10.9 102460 74
2007-04-11 06:26:36 51°13.601 2°56.099 1.5 23 10.9 102460 74
2007-04-11 06:26:41 51°13.602 2°56.099 1.9 22 10.9 102460 74
2007-04-11 06:26:46 51°13.601 2°56.099 2.3 26 10.9 102460 74
2007-04-11 06:26:51 51°13.601 2°56.099 2.1 33 10.9 102460 74
2007-04-11 06:26:56 51°13.601 2°56.099 2.2 23 10.9 102460 74
2007-04-11 06:27:01 51°13.601 2°56.099 1.9 4 10.9 102460 74
2007-04-11 06:27:06 51°13.601 2°56.1 1.6 7 11 102460 74
2007-04-11 06:27:11 51°13.601 2°56.099 1.8 20 11 102460 74
2007-04-11 06:27:16 51°13.601 2°56.099 2.2 22 11 102460 74
2007-04-11 06:27:21 51°13.601 2°56.099 2.2 24 11 102460 74
2007-04-11 06:27:26 51°13.601 2°56.099 1.7 14 11 102460 74
2007-04-11 06:27:31 51°13.601 2°56.099 1.5 30 11 102460 74
2007-04-11 06:27:36 51°13.601 2°56.099 1.7 27 11 102460 74
2007-04-11 06:27:41 51°13.601 2°56.098 1 26 11 102460 74
2007-04-11 06:27:46 51°13.601 2°56.097 1.3 27 11 102460 74
2007-04-11 06:27:51 51°13.601 2°56.095 2.5 36 11 102460 74
2007-04-11 06:27:56 51°13.602 2°56.093 2.9 36 11 102460 73
2007-04-11 06:28:01 51°13.603 2°56.089 3.3 35 11 102460 73
2007-04-11 06:28:06 51°13.604 2°56.085 3 32 10.9 102460 73
2007-04-11 06:28:11 51°13.605 2°56.08 2 36 10.9 102460 73
2007-04-11 06:28:17 51°13.607 2°56.074 2 33 11 102460 73
2007-04-11 06:28:21 51°13.608 2°56.069 2.5 42 11 102460 73
2007-04-11 06:28:26 51°13.61 2°56.063 3.3 41 10.9 102460 73
2007-04-11 06:28:31 51°13.612 2°56.056 2.3 44 10.9 102460 73
2007-04-11 06:28:36 51°13.614 2°56.049 2.5 38 11 102460 73
2007-04-11 06:28:41 51°13.615 2°56.042 2.7 40 11 102460 73
2007-04-11 06:28:46 51°13.617 2°56.034 2.4 42 11 102460 73
2007-04-11 06:28:51 51°13.619 2°56.026 3.8 40 11 102460 73
2007-04-11 06:28:56 51°13.621 2°56.018 3.5 40 11 102460 73
2007-04-11 06:29:01 51°13.624 2°56.01 3.4 44 11 102460 73
2007-04-11 06:29:06 51°13.626 2°56.002 3.6 40 11 102460 73
2007-04-11 06:29:11 51°13.629 2°55.993 2.7 41 11 102460 73
2007-04-11 06:29:16 51°13.631 2°55.984 3.2 21 11 102460 73
2007-04-11 06:29:21 51°13.634 2°55.974 2.4 37 11 102460 73
2007-04-11 06:29:26 51°13.637 2°55.965 2.1 25 11 102460 73
2007-04-11 06:29:31 51°13.64 2°55.955 2.6 51 11 102460 73
2007-04-11 06:29:36 51°13.643 2°55.946 2.8 28 11 102460 73
2007-04-11 06:29:41 51°13.646 2°55.936 3.4 41 11 102460 73
2007-04-11 06:29:46 51°13.649 2°55.927 2.9 26 11 102460 73
2007-04-11 06:29:51 51°13.652 2°55.918 2.6 56 11 102460 73
2007-04-11 06:29:56 51°13.655 2°55.91 3.4 25 11 102460 73
2007-04-11 06:30:01 51°13.658 2°55.901 3.7 41 11 102460 73
2007-04-11 06:30:06 51°13.66 2°55.893 3 27 11 102460 73
2007-04-11 06:30:12 51°13.663 2°55.884 2.7 37 11 102460 73
2007-04-11 06:30:16 51°13.665 2°55.878 2.3 44 11 102460 73
2007-04-11 06:30:21 51°13.667 2°55.87 2.8 41 11 102460 73
2007-04-11 06:30:26 51°13.669 2°55.863 2.6 41 11 102460 73
2007-04-11 06:30:31 51°13.671 2°55.856 2.4 42 11 102460 73
2007-04-11 06:30:36 51°13.672 2°55.849 2.5 26 11 102460 73
2007-04-11 06:30:41 51°13.674 2°55.842 2.5 52 11 102460 73
2007-04-11 06:30:46 51°13.675 2°55.836 2.4 42 11 102460 73
2007-04-11 06:30:51 51°13.677 2°55.83 2.7 57 11 102460 73
2007-04-11 06:30:55 51°13.677 2°55.825 2.4 27 11 102460 73
2007-04-11 06:31:00 51°13.679 2°55.819 3 50 11 102460 73
2007-04-11 06:31:05 51°13.68 2°55.813 3.1 25 11 102460 73
2007-04-11 06:31:10 51°13.68 2°55.808 3.5 53 11 102460 73
2007-04-11 06:31:15 51°13.681 2°55.802 3.2 28 11 102460 73
2007-04-11 06:31:20 51°13.682 2°55.797 3.7 42 11 102460 73
2007-04-11 06:31:24 51°13.682 2°55.793 3.4 38 11 102460 73
2007-04-11 06:31:29 51°13.683 2°55.788 3.2 38 11 102460 73
2007-04-11 06:31:34 51°13.683 2°55.783 3.4 38 11 102460 73
2007-04-11 06:31:39 51°13.683 2°55.779 2.8 34 11 102460 73
2007-04-11 06:31:44 51°13.683 2°55.776 2.3 33 11 102460 73
2007-04-11 06:31:49 51°13.683 2°55.772 2.1 50 11 102460 73
2007-04-11 06:31:53 51°13.683 2°55.77 2.5 32 11 102460 73
2007-04-11 06:31:58 51°13.683 2°55.767 3.4 40 11 102460 73
2007-04-11 06:32:03 51°13.683 2°55.764 4 40 11 102470 73
2007-04-11 06:32:08 51°13.683 2°55.762 2.9 40 11 102470 73
2007-04-11 06:32:13 51°13.683 2°55.76 3 43 11.1 102460 72
2007-04-11 06:32:18 51°13.683 2°55.759 2.7 44 11.1 102460 72
2007-04-11 06:32:23 51°13.683 2°55.758 3.3 27 11 102460 72
2007-04-11 06:32:28 51°13.683 2°55.757 2.4 51 11 102460 72
2007-04-11 06:32:32 51°13.683 2°55.756 2.4 45 11.1 102460 72
2007-04-11 06:32:37 51°13.684 2°55.756 2.7 36 11.1 102460 72
2007-04-11 06:32:42 51°13.684 2°55.756 3 39 11.1 102470 72
2007-04-11 06:32:48 51°13.684 2°55.756 2.5 45 11.1 102470 72
2007-04-11 06:32:52 51°13.684 2°55.757 3 44 11.1 102470 72
2007-04-11 06:32:58 51°13.685 2°55.757 3.2 44 11.1 102470 72
2007-04-11 06:33:02 51°13.686 2°55.758 3.5 39 11.1 102460 72
2007-04-11 06:33:08 51°13.686 2°55.759 2.7 34 11.1 102460 72
2007-04-11 06:33:13 51°13.687 2°55.76 2.9 20 11.1 102470 72
2007-04-11 06:33:18 51°13.688 2°55.762 2.2 55 11.1 102470 72
2007-04-11 06:33:22 51°13.689 2°55.763 2.6 20 11.1 102470 72
2007-04-11 06:33:27 51°13.69 2°55.764 2 51 11.1 102470 72
2007-04-11 06:33:33 51°13.692 2°55.766 2.2 28 11.1 102470 72
2007-04-11 06:33:38 51°13.693 2°55.767 2 54 11.1 102470 72
2007-04-11 06:33:42 51°13.694 2°55.768 2.2 29 11.1 102470 72
2007-04-11 06:33:48 51°13.696 2°55.77 1.3 53 11.1 102470 72
2007-04-11 06:33:52 51°13.697 2°55.77 1.4 27 11.1 102470 72
2007-04-11 06:33:58 51°13.698 2°55.771 1.9 32 11.1 102470 72
2007-04-11 06:34:02 51°13.699 2°55.771 2.5 22 11.1 102470 72
2007-04-11 06:34:08 51°13.699 2°55.771 4.8 52 11.1 102470 72
2007-04-11 06:34:12 51°13.698 2°55.771 3.3 23 11.1 102470 72
2007-04-11 06:34:18 51°13.696 2°55.77 3.6 51 11.1 102470 72
2007-04-11 06:34:22 51°13.695 2°55.769 2.9 21 11.1 102470 72
2007-04-11 06:34:28 51°13.694 2°55.768 2 36 11.1 102470 72
2007-04-11 06:34:33 51°13.694 2°55.768 1.6 19 11.1 102470 72
2007-04-11 06:34:39 51°13.694 2°55.768 2.5 55 11.1 102470 72
2007-04-11 06:34:45 51°13.695 2°55.767 2.2 26 11.1 102470 72
2007-04-11 06:34:50 51°13.696 2°55.767 1.7 36 11.1 102470 72
2007-04-11 06:34:56 51°13.698 2°55.767 1.5 19 11.1 102470 72
2007-04-11 06:35:01 51°13.7 2°55.766 2.5 303 11.1 102470 72
2007-04-11 06:35:06 51°13.702 2°55.766 2.4 270 11.2 102470 72
2007-04-11 06:35:11 51°13.705 2°55.764 1.6 303 11.2 102470 72
2007-04-11 06:35:16 51°13.708 2°55.762 1.7 252 11.2 102470 72
2007-04-11 06:35:21 51°13.711 2°55.759 2 305 11.2 102470 72
2007-04-11 06:35:25 51°13.714 2°55.757 2 255 11.2 102470 72
2007-04-11 06:35:30 51°13.718 2°55.752 2.4 303 11.2 102470 72
2007-04-11 06:35:35 51°13.722 2°55.748 2.1 243 11.2 102470 72
2007-04-11 06:35:40 51°13.726 2°55.742 1.9 308 11.2 102470 72
2007-04-11 06:35:45 51°13.731 2°55.736 1.3 317 11.2 102470 72
2007-04-11 06:35:50 51°13.736 2°55.73 2 304 11.2 102470 72
2007-04-11 06:35:55 51°13.741 2°55.724 2.4 318 11.3 102470 72
2007-04-11 06:36:00 51°13.747 2°55.717 2 36 11.3 102470 72
2007-04-11 06:36:04 51°13.752 2°55.711 2.1 24 11.3 102470 72
2007-04-11 06:36:09 51°13.758 2°55.704 2.6 309 11.3 102470 72
2007-04-11 06:36:14 51°13.765 2°55.697 2.2 315 11.3 102470 71
2007-04-11 06:36:19 51°13.772 2°55.69 2.6 33 11.3 102470 71
2007-04-11 06:36:24 51°13.779 2°55.682 2.7 318 11.3 102470 71
2007-04-11 06:36:29 51°13.787 2°55.675 2.3 302 11.3 102470 71
2007-04-11 06:36:33 51°13.793 2°55.669 2.2 25 11.3 102470 71
2007-04-11 06:36:38 51°13.801 2°55.662 2.1 306 11.3 102470 71
2007-04-11 06:36:43 51°13.81 2°55.655 1.8 27 11.3 102470 71
2007-04-11 06:36:48 51°13.819 2°55.648 1.1 317 11.3 102470 71
2007-04-11 06:36:53 51°13.827 2°55.64 1 317 11.3 102470 71
2007-04-11 06:36:58 51°13.837 2°55.632 1.4 323 11.3 102470 71
2007-04-11 06:37:02 51°13.845 2°55.627 1.9 321 11.3 102470 71
2007-04-11 06:37:08 51°13.856 2°55.617 1.9 235 11.3 102470 71
2007-04-11 06:37:13 51°13.866 2°55.611 2 20 11.3 102470 71
2007-04-11 06:37:18 51°13.877 2°55.604 1.9 302 11.3 102470 71
2007-04-11 06:37:22 51°13.885 2°55.597 2.6 321 11.3 102470 71
2007-04-11 06:37:28 51°13.898 2°55.588 2.9 330 11.3 102470 71
2007-04-11 06:37:33 51°13.908 2°55.579 3.1 323 11.3 102470 71
2007-04-11 06:37:38 51°13.919 2°55.571 2.8 304 11.3 102470 71
2007-04-11 06:37:42 51°13.928 2°55.565 2.9 26 11.4 102470 71
2007-04-11 06:37:48 51°13.941 2°55.555 4 305 11.4 102470 71
2007-04-11 06:37:53 51°13.953 2°55.547 4 319 11.4 102470 71
2007-04-11 06:37:58 51°13.964 2°55.539 3.3 308 11.4 102470 71
2007-04-11 06:38:02 51°13.973 2°55.533 3.4 323 11.4 102470 71
2007-04-11 06:38:07 51°13.985 2°55.525 3.8 303 11.4 102470 71
2007-04-11 06:38:12 51°13.996 2°55.518 3.5 19 11.4 102470 71
2007-04-11 06:38:18 51°14.01 2°55.508 3.6 303 11.4 102470 71
2007-04-11 06:38:22 51°14.019 2°55.502 3.2 323 11.4 102470 71
2007-04-11 06:38:28 51°14.033 2°55.492 3.8 304 11.4 102470 71
2007-04-11 06:38:32 51°14.042 2°55.485 4 316 11.4 102470 70
2007-04-11 06:38:38 51°14.055 2°55.475 3.6 31 11.4 102470 70
2007-04-11 06:38:42 51°14.065 2°55.468 3.7 27 11.4 102470 70
2007-04-11 06:38:48 51°14.078 2°55.458 3.7 322 11.4 102470 70
2007-04-11 06:38:53 51°14.09 2°55.449 3.1 319 11.4 102470 70
2007-04-11 06:38:58 51°14.101 2°55.441 2.8 306 11.4 102470 70
2007-04-11 06:39:03 51°14.113 2°55.432 3.1 318 11.4 102460 70
2007-04-11 06:39:08 51°14.124 2°55.424 2.8 308 11.4 102460 70
2007-04-11 06:39:13 51°14.136 2°55.415 2.5 317 11.5 102460 70
2007-04-11 06:39:18 51°14.147 2°55.406 4.6 310 11.5 102460 70
2007-04-11 06:39:23 51°14.159 2°55.396 3.7 19 11.5 102460 70
2007-04-11 06:39:29 51°14.173 2°55.383 4.2 331 11.5 102460 70
2007-04-11 06:39:35 51°14.187 2°55.37 3.3 328 11.5 102460 70
2007-04-11 06:39:40 51°14.199 2°55.358 3.6 303 11.5 102460 70
2007-04-11 06:39:46 51°14.213 2°55.342 2.5 19 11.5 102470 70
2007-04-11 06:39:51 51°14.225 2°55.329 3.3 302 11.5 102470 70
2007-04-11 06:39:56 51°14.236 2°55.314 4.3 322 11.5 102460 69
2007-04-11 06:40:01 51°14.247 2°55.298 3.8 310 11.5 102460 69
2007-04-11 06:40:06 51°14.257 2°55.282 4.7 321 11.5 102460 69
2007-04-11 06:40:11 51°14.268 2°55.265 4.2 321 11.5 102460 69
2007-04-11 06:40:16 51°14.278 2°55.248 5.2 321 11.6 102460 69
2007-04-11 06:40:21 51°14.289 2°55.23 5.3 302 11.6 102460 69
2007-04-11 06:40:26 51°14.299 2°55.211 5.1 21 11.6 102460 69
2007-04-11 06:40:31 51°14.31 2°55.191 5.2 302 11.6 102460 69
2007-04-11 06:40:35 51°14.318 2°55.175 4.6 27 11.6 102460 69
2007-04-11 06:40:41 51°14.329 2°55.151 5.9 309 11.6 102460 69
2007-04-11 06:40:45 51°14.337 2°55.134 6.4 26 11.6 102460 68
2007-04-11 06:40:50 51°14.346 2°55.112 6.5 301 11.6 102460 68
2007-04-11 06:40:55 51°14.356 2°55.09 6.9 22 11.6 102450 68
2007-04-11 06:41:00 51°14.365 2°55.068 7.1 315 11.6 102450 68
2007-04-11 06:41:05 51°14.375 2°55.045 7 24 11.7 102460 68
2007-04-11 06:41:09 51°14.382 2°55.026 8.1 310 11.7 102460 68
2007-04-11 06:41:14 51°14.392 2°55.002 6.8 26 11.7 102450 68
2007-04-11 06:41:19 51°14.402 2°54.978 7.9 302 11.7 102450 68
2007-04-11 06:41:24 51°14.413 2°54.954 7.3 24 11.7 102460 67
2007-04-11 06:41:29 51°14.424 2°54.931 6.8 39 11.7 102460 67
2007-04-11 06:41:34 51°14.435 2°54.908 6.9 21 11.8 102460 67
2007-04-11 06:41:38 51°14.445 2°54.89 7.3 305 11.8 102460 67
2007-04-11 06:41:43 51°14.457 2°54.867 7.2 26 11.8 102450 67
2007-04-11 06:41:48 51°14.469 2°54.845 7 306 11.8 102450 67
2007-04-11 06:41:53 51°14.48 2°54.822 7.5 22 11.8 102450 67
2007-04-11 06:41:58 51°14.491 2°54.799 7.5 32 11.8 102450 67
2007-04-11 06:42:02 51°14.5 2°54.78 7 27 11.8 102450 66
2007-04-11 06:42:08 51°14.512 2°54.751 7.9 36 11.8 102450 66
2007-04-11 06:42:12 51°14.52 2°54.732 7.3 24 11.8 102460 66
2007-04-11 06:42:17 51°14.53 2°54.708 7 306 11.8 102460 66
2007-04-11 06:42:22 51°14.54 2°54.684 7.6 26 11.9 102460 66
2007-04-11 06:42:28 51°14.552 2°54.655 7.4 307 11.9 102460 66
2007-04-11 06:42:33 51°14.562 2°54.631 7.6 19 11.9 102450 66
2007-04-11 06:42:38 51°14.571 2°54.607 7.7 305 11.9 102450 66
2007-04-11 06:42:42 51°14.579 2°54.588 7.4 19 11.8 102460 66
2007-04-11 06:42:48 51°14.591 2°54.559 7.1 309 11.8 102460 66
2007-04-11 06:42:53 51°14.601 2°54.534 7.7 23 11.8 102460 66
2007-04-11 06:42:58 51°14.61 2°54.51 7.7 34 11.8 102460 66
2007-04-11 06:43:02 51°14.618 2°54.491 7.8 24 11.8 102460 67
2007-04-11 06:43:08 51°14.63 2°54.462 7.5 308 11.8 102460 67
2007-04-11 06:43:12 51°14.637 2°54.443 7.6 22 11.8 102450 67
2007-04-11 06:43:17 51°14.647 2°54.418 7.6 303 11.8 102450 67
2007-04-11 06:43:23 51°14.655 2°54.387 7.9 318 11.8 102460 67
2007-04-11 06:43:28 51°14.663 2°54.362 8.5 305 11.8 102460 67
2007-04-11 06:43:32 51°14.668 2°54.341 8.2 315 11.8 102470 67
2007-04-11 06:43:37 51°14.674 2°54.315 8.1 306 11.8 102470 67
2007-04-11 06:43:43 51°14.681 2°54.283 8.1 22 11.7 102460 67
2007-04-11 06:43:48 51°14.687 2°54.257 8.1 302 11.7 102460 67
2007-04-11 06:43:52 51°14.691 2°54.236 9.1 316 11.8 102460 68
2007-04-11 06:43:58 51°14.697 2°54.204 7.5 302 11.8 102460 68
2007-04-11 06:44:02 51°14.701 2°54.182 8.4 317 11.7 102460 68
2007-04-11 06:44:08 51°14.706 2°54.15 8.6 318 11.7 102460 68
2007-04-11 06:44:12 51°14.708 2°54.128 7.7 318 11.7 102450 68
2007-04-11 06:44:18 51°14.711 2°54.096 7.9 279 11.7 102450 68
2007-04-11 06:44:22 51°14.712 2°54.074 8.1 318 11.7 102460 68
2007-04-11 06:44:28 51°14.714 2°54.041 8.2 302 11.7 102460 68
2007-04-11 06:44:33 51°14.715 2°54.014 9 317 11.7 102450 68
2007-04-11 06:44:38 51°14.717 2°53.986 8.8 305 11.7 102450 68
2007-04-11 06:44:42 51°14.718 2°53.964 8.3 318 11.7 102450 68
2007-04-11 06:44:48 51°14.719 2°53.931 8.3 305 11.7 102450 68
2007-04-11 06:44:53 51°14.72 2°53.903 8.6 318 11.7 102460 68
2007-04-11 06:44:58 51°14.721 2°53.875 8.8 319 11.7 102460 68
2007-04-11 06:45:02 51°14.722 2°53.853 8.9 319 11.7 102460 69
2007-04-11 06:45:08 51°14.724 2°53.82 8.1 306 11.7 102460 69
2007-04-11 06:45:12 51°14.724 2°53.797 8.3 320 11.7 102460 69
2007-04-11 06:45:18 51°14.726 2°53.763 8.5 321 11.7 102460 69
2007-04-11 06:45:22 51°14.727 2°53.741 8.7 319 11.7 102460 69
2007-04-11 06:45:28 51°14.728 2°53.707 8.5 304 11.7 102460 69
2007-04-11 06:45:33 51°14.73 2°53.679 8.1 320 11.7 102460 69
2007-04-11 06:45:38 51°14.731 2°53.65 8.1 322 11.7 102460 69
2007-04-11 06:45:43 51°14.732 2°53.622 8.4 322 11.7 102460 69
2007-04-11 06:45:48 51°14.734 2°53.593 8.4 306 11.7 102460 69
2007-04-11 06:45:53 51°14.735 2°53.565 8 322 11.7 102460 69
2007-04-11 06:45:57 51°14.736 2°53.542 7.8 307 11.7 102460 69
2007-04-11 06:46:03 51°14.738 2°53.508 8.5 322 11.7 102460 70
2007-04-11 06:46:08 51°14.739 2°53.479 8.6 321 11.7 102460 70
2007-04-11 06:46:12 51°14.74 2°53.457 8.6 320 11.7 102460 70
2007-04-11 06:46:18 51°14.742 2°53.422 9 282 11.7 102460 70
2007-04-11 06:46:22 51°14.743 2°53.399 8.8 319 11.7 102460 71
2007-04-11 06:46:28 51°14.745 2°53.365 8.4 318 11.7 102460 71
2007-04-11 06:46:33 51°14.747 2°53.337 9 318 11.7 102460 71
2007-04-11 06:46:38 51°14.748 2°53.308 8.6 301 11.7 102460 71
2007-04-11 06:46:42 51°14.75 2°53.285 8.6 318 11.7 102460 71
2007-04-11 06:46:47 51°14.751 2°53.256 9.2 303 11.7 102460 71
2007-04-11 06:46:52 51°14.753 2°53.228 8.9 316 11.7 102460 71
2007-04-11 06:46:58 51°14.755 2°53.194 8.5 304 11.7 102460 71
2007-04-11 06:47:02 51°14.757 2°53.171 8.8 317 11.6 102450 71
2007-04-11 06:47:08 51°14.759 2°53.136 8.7 304 11.6 102450 71
2007-04-11 06:47:13 51°14.761 2°53.108 8.9 318 11.6 102460 71
2007-04-11 06:47:18 51°14.763 2°53.079 8.2 319 11.6 102460 71
2007-04-11 06:47:22 51°14.764 2°53.056 8.7 319 11.5 102460 71
2007-04-11 06:47:28 51°14.766 2°53.022 8.4 306 11.5 102460 71
2007-04-11 06:47:32 51°14.768 2°52.999 8.2 319 11.5 102460 72
2007-04-11 06:47:38 51°14.77 2°52.964 8.4 320 11.5 102460 72
2007-04-11 06:47:42 51°14.772 2°52.941 7.9 319 11.5 102460 72
2007-04-11 06:47:48 51°14.774 2°52.907 8.3 320 11.5 102460 72
2007-04-11 06:47:53 51°14.775 2°52.878 8.1 320 11.5 102460 72
2007-04-11 06:47:58 51°14.777 2°52.85 7.9 304 11.5 102460 72
2007-04-11 06:48:02 51°14.779 2°52.827 8.1 321 11.5 102460 72
2007-04-11 06:48:08 51°14.781 2°52.793 8 308 11.5 102460 72
2007-04-11 06:48:13 51°14.783 2°52.764 8.3 321 11.5 102460 73
2007-04-11 06:48:18 51°14.786 2°52.735 7.9 285 11.5 102460 73
2007-04-11 06:48:23 51°14.789 2°52.707 7.6 323 11.4 102460 73
2007-04-11 06:48:28 51°14.792 2°52.679 8 304 11.4 102460 73
2007-04-11 06:48:33 51°14.795 2°52.651 7.8 320 11.4 102460 73
2007-04-11 06:48:37 51°14.797 2°52.629 7.7 308 11.4 102460 73
2007-04-11 06:48:42 51°14.8 2°52.6 7.9 320 11.4 102470 74
2007-04-11 06:48:48 51°14.804 2°52.567 8.4 305 11.4 102470 74
2007-04-11 06:48:53 51°14.807 2°52.538 8.3 319 11.4 102460 74
2007-04-11 06:48:57 51°14.809 2°52.516 7.9 321 11.4 102460 74
2007-04-11 06:49:02 51°14.812 2°52.488 8.6 320 11.4 102460 75
2007-04-11 06:49:08 51°14.815 2°52.454 8.2 320 11.4 102460 75
2007-04-11 06:49:13 51°14.818 2°52.426 8.3 319 11.4 102460 75
2007-04-11 06:49:17 51°14.82 2°52.404 8.5 320 11.4 102460 75
2007-04-11 06:49:22 51°14.823 2°52.376 8 319 11.3 102460 75
2007-04-11 06:49:28 51°14.826 2°52.342 7.9 303 11.3 102460 75
2007-04-11 06:49:32 51°14.829 2°52.32 7.8 320 11.3 102460 75
2007-04-11 06:49:37 51°14.832 2°52.292 8.3 308 11.3 102460 75
2007-04-11 06:49:43 51°14.836 2°52.258 8.2 321 11.3 102460 75
2007-04-11 06:49:48 51°14.838 2°52.23 7.6 321 11.3 102460 75
2007-04-11 06:49:52 51°14.841 2°52.208 7.9 321 11.3 102460 75
2007-04-11 06:49:58 51°14.844 2°52.175 7.9 304 11.3 102460 75
2007-04-11 06:50:03 51°14.846 2°52.146 8 321 11.2 102460 76
2007-04-11 06:50:08 51°14.848 2°52.118 7.4 302 11.2 102460 76
2007-04-11 06:50:13 51°14.85 2°52.09 8 322 11.2 102460 76
2007-04-11 06:50:18 51°14.853 2°52.062 7.8 282 11.2 102460 76
2007-04-11 06:50:23 51°14.855 2°52.034 7.1 321 11.2 102460 76
2007-04-11 06:50:28 51°14.857 2°52.006 7.7 321 11.2 102460 76
2007-04-11 06:50:32 51°14.858 2°51.984 7.4 322 11.2 102460 76
2007-04-11 06:50:37 51°14.86 2°51.956 7.6 308 11.2 102460 76
2007-04-11 06:50:43 51°14.862 2°51.922 8 321 11.2 102460 77
2007-04-11 06:50:48 51°14.864 2°51.894 8.3 321 11.2 102460 77
2007-04-11 06:50:53 51°14.865 2°51.866 8.1 319 11.2 102460 77
2007-04-11 06:50:58 51°14.866 2°51.838 8.2 307 11.2 102460 77
2007-04-11 06:51:02 51°14.866 2°51.815 8.3 320 11.1 102460 77
2007-04-11 06:51:08 51°14.867 2°51.782 8.3 306 11.1 102460 77
2007-04-11 06:51:13 51°14.867 2°51.753 8 322 11.1 102460 78
2007-04-11 06:51:18 51°14.868 2°51.725 7.8 305 11.1 102460 78
2007-04-11 06:51:22 51°14.868 2°51.703 7.9 321 11.1 102460 78
2007-04-11 06:51:27 51°14.869 2°51.674 8 321 11.1 102460 78
2007-04-11 06:51:33 51°14.87 2°51.64 7.9 321 11.1 102470 78
2007-04-11 06:51:38 51°14.871 2°51.612 7.7 305 11.1 102470 78
2007-04-11 06:51:42 51°14.871 2°51.59 8.2 321 11 102460 78
2007-04-11 06:51:48 51°14.873 2°51.556 7.8 309 11 102460 78
2007-04-11 06:51:53 51°14.873 2°51.528 7.8 321 11 102460 78
2007-04-11 06:51:58 51°14.874 2°51.499 8 305 11 102460 78
2007-04-11 06:52:03 51°14.875 2°51.471 7.6 320 11 102460 78
2007-04-11 06:52:08 51°14.876 2°51.443 7.9 307 11 102460 78
2007-04-11 06:52:12 51°14.877 2°51.42 8.4 321 11 102460 79
2007-04-11 06:52:18 51°14.878 2°51.387 8.1 322 11 102460 79
2007-04-11 06:52:23 51°14.878 2°51.358 7.9 322 11 102460 79
2007-04-11 06:52:28 51°14.88 2°51.33 7.8 302 11 102460 79
2007-04-11 06:52:32 51°14.88 2°51.308 8 322 11 102460 79
2007-04-11 06:52:38 51°14.882 2°51.275 8.2 305 11 102460 79
2007-04-11 06:52:42 51°14.882 2°51.252 7.9 322 10.9 102460 79
2007-04-11 06:52:48 51°14.883 2°51.219 8.8 321 10.9 102460 79
2007-04-11 06:52:53 51°14.884 2°51.191 8.4 320 10.9 102460 79
2007-04-11 06:52:58 51°14.885 2°51.163 8.5 308 10.9 102460 79
2007-04-11 06:53:03 51°14.886 2°51.135 8.3 321 10.9 102460 80
2007-04-11 06:53:08 51°14.887 2°51.107 8.8 321 10.9 102460 80
2007-04-11 06:53:13 51°14.888 2°51.079 8.4 322 10.9 102460 80
2007-04-11 06:53:18 51°14.889 2°51.051 8.1 307 10.9 102460 80
2007-04-11 06:53:22 51°14.889 2°51.029 8.5 322 10.9 102460 80
2007-04-11 06:53:28 51°14.89 2°50.996 8.5 321 10.9 102460 80
2007-04-11 06:53:33 51°14.891 2°50.968 8 322 10.9 102460 80
2007-04-11 06:53:38 51°14.892 2°50.94 8.4 322 10.9 102460 80
2007-04-11 06:53:42 51°14.893 2°50.917 8 322 10.9 102460 80
2007-04-11 06:53:48 51°14.894 2°50.884 8.1 303 10.9 102460 80
2007-04-11 06:53:53 51°14.895 2°50.856 8 322 10.9 102470 81
2007-04-11 06:53:58 51°14.896 2°50.828 8.5 322 10.9 102470 81
2007-04-11 06:54:02 51°14.896 2°50.805 8.1 321 10.9 102460 81
2007-04-11 06:54:08 51°14.897 2°50.772 8.3 305 10.9 102460 81
2007-04-11 06:54:13 51°14.898 2°50.744 8.8 321 10.9 102460 81
2007-04-11 06:54:18 51°14.899 2°50.716 8.4 285 10.9 102460 81
2007-04-11 06:54:22 51°14.9 2°50.693 8.8 320 10.9 102460 82
2007-04-11 06:54:28 51°14.901 2°50.66 8.6 305 10.9 102460 82
2007-04-11 06:54:32 51°14.902 2°50.637 8.8 320 10.9 102470 82
2007-04-11 06:54:37 51°14.903 2°50.61 9.4 319 10.9 102470 82
2007-04-11 06:54:43 51°14.904 2°50.576 9.5 318 10.9 102460 82
2007-04-11 06:54:48 51°14.905 2°50.548 9.4 305 10.9 102460 82
2007-04-11 06:54:52 51°14.906 2°50.526 9 319 10.9 102460 82
2007-04-11 06:54:57 51°14.907 2°50.498 9.3 319 10.9 102460 82
2007-04-11 06:55:03 51°14.909 2°50.464 9.3 319 10.9 102460 82
2007-04-11 06:55:08 51°14.91 2°50.436 8.9 318 10.9 102460 82
2007-04-11 06:55:13 51°14.912 2°50.408 9 318 10.9 102450 82
2007-04-11 06:55:17 51°14.913 2°50.386 9.5 319 10.9 102450 82
2007-04-11 06:55:22 51°14.914 2°50.358 9.1 318 10.9 102460 82
2007-04-11 06:55:28 51°14.915 2°50.324 8.9 318 10.9 102460 82
2007-04-11 06:55:32 51°14.916 2°50.302 9.2 319 10.9 102460 81
2007-04-11 06:55:37 51°14.917 2°50.274 9.1 317 10.9 102460 81
2007-04-11 06:55:42 51°14.917 2°50.246 9.5 319 10.8 102460 81
2007-04-11 06:55:48 51°14.919 2°50.212 8.9 317 10.8 102460 81
2007-04-11 06:55:53 51°14.92 2°50.184 8.8 319 10.8 102460 81
2007-04-11 06:55:58 51°14.921 2°50.157 9.1 320 10.8 102460 81
2007-04-11 06:56:02 51°14.922 2°50.134 8.7 319 10.8 102450 81
2007-04-11 06:56:08 51°14.922 2°50.101 8.4 320 10.8 102450 81
2007-04-11 06:56:13 51°14.924 2°50.073 8.1 320 10.8 102460 81
2007-04-11 06:56:18 51°14.925 2°50.045 8.9 319 10.8 102460 81
2007-04-11 06:56:23 51°14.926 2°50.017 8.4 321 10.8 102460 81
2007-04-11 06:56:28 51°14.927 2°49.99 8.2 320 10.8 102460 81
2007-04-11 06:56:33 51°14.928 2°49.962 8.4 320 10.9 102460 81
2007-04-11 06:56:38 51°14.929 2°49.934 8.3 320 10.9 102460 81
2007-04-11 06:56:42 51°14.93 2°49.912 8.7 320 10.9 102460 81
2007-04-11 06:56:48 51°14.931 2°49.878 8.2 320 10.9 102460 81
2007-04-11 06:56:52 51°14.932 2°49.856 8.5 321 10.9 102460 81
2007-04-11 06:56:57 51°14.933 2°49.828 8.3 321 10.9 102460 81
2007-04-11 06:57:03 51°14.934 2°49.795 7.9 321 10.9 102460 81
2007-04-11 06:57:08 51°14.935 2°49.767 7.9 321 10.9 102460 81
2007-04-11 06:57:12 51°14.936 2°49.744 8.2 322 10.9 102460 81
2007-04-11 06:57:17 51°14.937 2°49.716 7.6 322 10.9 102460 81
2007-04-11 06:57:23 51°14.938 2°49.683 8.3 322 10.9 102460 81
2007-04-11 06:57:28 51°14.939 2°49.655 7.9 321 10.9 102460 81
2007-04-11 06:57:33 51°14.94 2°49.627 8 323 10.9 102470 81
2007-04-11 06:57:38 51°14.941 2°49.599 8.3 322 10.9 102470 81
2007-04-11 06:57:42 51°14.942 2°49.577 7.8 321 10.9 102460 81
2007-04-11 06:57:48 51°14.944 2°49.543 8.2 320 10.9 102460 81
2007-04-11 06:57:53 51°14.945 2°49.515 8.1 321 10.9 102460 81
2007-04-11 06:57:58 51°14.946 2°49.487 8.2 321 10.9 102460 81
2007-04-11 06:58:02 51°14.947 2°49.465 8 321 10.9 102460 81
2007-04-11 06:58:08 51°14.949 2°49.431 7.9 320 10.9 102460 81
2007-04-11 06:58:13 51°14.95 2°49.403 8.5 320 10.9 102470 81
2007-04-11 06:58:18 51°14.951 2°49.375 8.6 320 10.9 102470 81
2007-04-11 06:58:22 51°14.952 2°49.353 8.8 321 10.9 102470 82
2007-04-11 06:58:28 51°14.953 2°49.319 8.1 320 10.9 102470 82
2007-04-11 06:58:33 51°14.955 2°49.291 7.9 321 10.9 102470 82
2007-04-11 06:58:38 51°14.956 2°49.263 8.7 320 10.9 102470 82
2007-04-11 06:58:42 51°14.957 2°49.241 8.6 320 10.9 102460 82
2007-04-11 06:58:48 51°14.958 2°49.207 8.7 320 10.9 102460 82
2007-04-11 06:58:53 51°14.959 2°49.179 8.6 320 10.9 102470 81
2007-04-11 06:58:58 51°14.96 2°49.152 9 321 10.9 102470 81
2007-04-11 06:59:03 51°14.961 2°49.124 9.1 319 10.9 102460 81
2007-04-11 06:59:08 51°14.962 2°49.096 8.3 320 10.9 102460 81
2007-04-11 06:59:13 51°14.963 2°49.068 9 319 10.9 102460 81
2007-04-11 06:59:18 51°14.964 2°49.04 9.1 320 10.9 102460 81
2007-04-11 06:59:23 51°14.965 2°49.012 8.7 320 10.9 102460 81
2007-04-11 06:59:28 51°14.966 2°48.984 8.5 320 10.9 102460 81
2007-04-11 06:59:33 51°14.966 2°48.956 9 320 10.9 102470 81
2007-04-11 06:59:37 51°14.967 2°48.933 8.6 320 10.9 102470 81
2007-04-11 06:59:42 51°14.968 2°48.905 8.7 319 10.9 102470 81
2007-04-11 06:59:48 51°14.97 2°48.872 8.8 320 10.9 102470 81
2007-04-11 06:59:52 51°14.97 2°48.849 8.6 321 10.9 102460 81
2007-04-11 06:59:57 51°14.971 2°48.821 8.8 321 10.9 102460 81
2007-04-11 07:00:03 51°14.973 2°48.788 8.9 321 10.9 102460 81
2007-04-11 07:00:08 51°14.974 2°48.76 8.7 321 10.9 102460 81
2007-04-11 07:00:13 51°14.975 2°48.732 8.6 321 10.9 102470 81
2007-04-11 07:00:17 51°14.976 2°48.709 8.5 320 10.9 102470 81
2007-04-11 07:00:22 51°14.977 2°48.681 8.4 320 10.9 102460 82
2007-04-11 07:00:28 51°14.978 2°48.648 8.6 321 10.9 102460 82
2007-04-11 07:00:33 51°14.979 2°48.62 8.6 320 10.9 102460 82
2007-04-11 07:00:38 51°14.981 2°48.592 8.4 321 10.9 102460 82
2007-04-11 07:00:42 51°14.981 2°48.57 8.3 321 10.9 102460 82
2007-04-11 07:00:48 51°14.983 2°48.536 8.1 322 10.9 102460 82
2007-04-11 07:00:53 51°14.984 2°48.509 7.9 321 10.9 102470 82
2007-04-11 07:00:58 51°14.985 2°48.481 7.8 321 10.9 102470 82
2007-04-11 07:01:03 51°14.986 2°48.453 8.3 322 10.9 102470 82
2007-04-11 07:01:08 51°14.987 2°48.425 8 322 10.9 102470 82
2007-04-11 07:01:12 51°14.988 2°48.403 7.8 323 10.9 102470 82
2007-04-11 07:01:17 51°14.99 2°48.375 7.6 323 10.9 102470 82
2007-04-11 07:01:22 51°14.991 2°48.347 7.5 322 10.9 102460 82
2007-04-11 07:01:28 51°14.992 2°48.314 7.7 325 10.9 102460 82
2007-04-11 07:01:32 51°14.993 2°48.292 7.3 324 10.9 102470 82
2007-04-11 07:01:37 51°14.994 2°48.264 7.4 323 10.9 102470 82
2007-04-11 07:01:43 51°14.996 2°48.231 7.3 323 10.9 102470 82
2007-04-11 07:01:48 51°14.997 2°48.203 7.8 322 10.9 102470 82
2007-04-11 07:01:53 51°14.998 2°48.175 7.7 321 10.9 102470 82
2007-04-11 07:01:58 51°15 2°48.148 8.4 321 10.9 102470 82
2007-04-11 07:02:03 51°15.001 2°48.12 8.3 321 11 102470 83
2007-04-11 07:02:08 51°15.002 2°48.093 8.1 321 11 102470 83
2007-04-11 07:02:13 51°15.003 2°48.065 8.2 320 11 102470 83
2007-04-11 07:02:18 51°15.004 2°48.037 8.6 320 11 102470 83
2007-04-11 07:02:22 51°15.005 2°48.015 8.8 321 11 102460 83
2007-04-11 07:02:28 51°15.006 2°47.982 8.6 320 11 102460 83
2007-04-11 07:02:33 51°15.008 2°47.955 8.5 319 10.9 102470 83
2007-04-11 07:02:38 51°15.009 2°47.927 8.4 320 10.9 102470 83
2007-04-11 07:02:42 51°15.01 2°47.905 8.2 320 10.9 102470 83
2007-04-11 07:02:48 51°15.012 2°47.872 8.5 320 10.9 102470 83
2007-04-11 07:02:53 51°15.013 2°47.844 8.7 320 10.9 102460 82
2007-04-11 07:02:58 51°15.014 2°47.817 8.4 321 10.9 102460 82
2007-04-11 07:03:03 51°15.015 2°47.789 8.3 321 10.9 102460 82
2007-04-11 07:03:08 51°15.017 2°47.761 8.6 320 10.9 102460 82
2007-04-11 07:03:13 51°15.018 2°47.733 8.6 320 10.9 102460 82
2007-04-11 07:03:18 51°15.019 2°47.706 8.7 321 10.9 102460 82
2007-04-11 07:03:23 51°15.02 2°47.678 8 321 10.9 102460 82
2007-04-11 07:03:28 51°15.021 2°47.65 8.6 321 10.9 102460 82
2007-04-11 07:03:33 51°15.023 2°47.622 8 321 10.9 102460 82
2007-04-11 07:03:38 51°15.024 2°47.595 8.8 320 10.9 102460 82
2007-04-11 07:03:43 51°15.025 2°47.567 8.5 321 10.9 102460 82
2007-04-11 07:03:48 51°15.026 2°47.539 8.1 321 10.9 102460 82
2007-04-11 07:03:53 51°15.027 2°47.511 8 322 10.9 102470 82
2007-04-11 07:03:58 51°15.027 2°47.483 8.3 321 10.9 102470 82
2007-04-11 07:04:03 51°15.029 2°47.454 8.3 322 10.9 102460 83
2007-04-11 07:04:08 51°15.029 2°47.426 8 321 10.9 102460 83
2007-04-11 07:04:13 51°15.03 2°47.398 8.2 321 10.9 102470 83
2007-04-11 07:04:17 51°15.03 2°47.376 8.7 320 10.9 102470 83
2007-04-11 07:04:22 51°15.031 2°47.347 8.3 321 10.9 102460 83
2007-04-11 07:04:28 51°15.032 2°47.313 8.7 320 10.9 102460 83
2007-04-11 07:04:32 51°15.032 2°47.29 8.9 321 10.9 102460 83
2007-04-11 07:04:37 51°15.033 2°47.262 9 320 10.9 102460 83
2007-04-11 07:04:42 51°15.034 2°47.233 8.3 321 10.9 102470 83
2007-04-11 07:04:48 51°15.035 2°47.199 8.5 319 10.9 102470 83
2007-04-11 07:04:53 51°15.036 2°47.17 9.1 320 10.9 102460 83
2007-04-11 07:04:58 51°15.036 2°47.142 8.4 321 10.9 102460 83
2007-04-11 07:05:02 51°15.038 2°47.119 9.1 319 10.9 102470 83
2007-04-11 07:05:08 51°15.039 2°47.085 8.5 318 10.9 102470 83
2007-04-11 07:05:13 51°15.04 2°47.056 9.2 319 10.9 102460 83
2007-04-11 07:05:18 51°15.041 2°47.028 9 318 10.9 102460 83
2007-04-11 07:05:23 51°15.042 2°46.999 8.6 319 10.9 102470 83
2007-04-11 07:05:28 51°15.043 2°46.97 9 319 10.9 102470 83
2007-04-11 07:05:33 51°15.044 2°46.942 8.8 319 10.9 102460 83
2007-04-11 07:05:38 51°15.045 2°46.913 8.7 319 10.9 102460 83
2007-04-11 07:05:42 51°15.045 2°46.89 9.1 319 10.9 102470 83
2007-04-11 07:05:48 51°15.047 2°46.856 9.3 319 10.9 102470 83
2007-04-11 07:05:52 51°15.047 2°46.833 9.3 319 10.9 102460 83
2007-04-11 07:05:58 51°15.048 2°46.798 9.2 319 10.9 102460 83
2007-04-11 07:06:03 51°15.049 2°46.77 8.9 319 10.9 102460 83
2007-04-11 07:06:08 51°15.05 2°46.741 9.1 319 10.9 102460 83
2007-04-11 07:06:12 51°15.051 2°46.718 8.9 319 10.9 102460 83
2007-04-11 07:06:18 51°15.052 2°46.683 8.7 319 10.9 102460 83
2007-04-11 07:06:23 51°15.053 2°46.655 8.7 319 10.9 102460 83
2007-04-11 07:06:28 51°15.054 2°46.626 9.5 320 10.9 102460 83
2007-04-11 07:06:33 51°15.055 2°46.597 9.6 319 10.9 102460 82
2007-04-11 07:06:38 51°15.056 2°46.569 8.8 320 10.9 102460 82
2007-04-11 07:06:42 51°15.057 2°46.545 8.6 320 10.9 102460 82
2007-04-11 07:06:48 51°15.058 2°46.511 9.1 320 10.9 102460 82
2007-04-11 07:06:53 51°15.059 2°46.482 9.4 319 10.9 102460 83
2007-04-11 07:06:58 51°15.06 2°46.453 9.1 319 10.9 102460 83
2007-04-11 07:07:02 51°15.06 2°46.43 9.4 320 10.8 102460 83
2007-04-11 07:07:08 51°15.062 2°46.396 8.9 321 10.8 102460 83
2007-04-11 07:07:13 51°15.063 2°46.367 8.6 320 10.9 102460 83
2007-04-11 07:07:18 51°15.064 2°46.338 8.7 320 10.9 102460 83
2007-04-11 07:07:22 51°15.065 2°46.315 8.5 320 10.9 102470 83
2007-04-11 07:07:28 51°15.066 2°46.281 8.5 321 10.9 102470 83
2007-04-11 07:07:33 51°15.067 2°46.252 8.9 321 10.9 102470 83
2007-04-11 07:07:38 51°15.068 2°46.224 8.9 320 10.9 102470 83
2007-04-11 07:07:42 51°15.069 2°46.201 8.8 320 10.9 102460 83
2007-04-11 07:07:48 51°15.07 2°46.167 8.7 319 10.9 102460 83
2007-04-11 07:07:53 51°15.071 2°46.138 9 321 10.9 102460 83
2007-04-11 07:07:58 51°15.072 2°46.109 8.3 321 10.9 102460 83
2007-04-11 07:08:03 51°15.073 2°46.081 8.8 320 10.9 102460 83
2007-04-11 07:08:08 51°15.073 2°46.052 8.6 321 10.9 102460 83
2007-04-11 07:08:13 51°15.075 2°46.024 8.6 321 10.9 102470 83
2007-04-11 07:08:18 51°15.075 2°45.996 8.5 322 10.9 102470 83
2007-04-11 07:08:23 51°15.077 2°45.967 8.5 323 10.9 102460 83
2007-04-11 07:08:28 51°15.078 2°45.939 8 323 10.9 102460 83
2007-04-11 07:08:33 51°15.079 2°45.91 8.5 322 10.9 102460 83
2007-04-11 07:08:37 51°15.08 2°45.888 8 322 10.9 102460 83
2007-04-11 07:08:42 51°15.081 2°45.859 8.6 322 10.9 102460 83
2007-04-11 07:08:48 51°15.082 2°45.825 8.5 321 10.9 102460 83
2007-04-11 07:08:52 51°15.083 2°45.802 8.4 322 10.9 102460 83
2007-04-11 07:08:57 51°15.084 2°45.774 8.6 321 10.9 102460 83
2007-04-11 07:09:03 51°15.085 2°45.74 8.6 322 10.9 102470 83
2007-04-11 07:09:08 51°15.087 2°45.712 8.6 321 10.9 102470 83
2007-04-11 07:09:13 51°15.088 2°45.683 8.8 321 10.9 102470 83
2007-04-11 07:09:17 51°15.088 2°45.661 8.4 321 10.9 102470 83
2007-04-11 07:09:22 51°15.09 2°45.632 8.1 321 10.9 102460 83
2007-04-11 07:09:28 51°15.091 2°45.598 8.7 320 10.9 102460 83
2007-04-11 07:09:33 51°15.092 2°45.57 8.3 321 10.9 102470 83
2007-04-11 07:09:38 51°15.093 2°45.542 8.2 320 10.9 102470 83
2007-04-11 07:09:42 51°15.094 2°45.519 8.2 322 10.9 102470 83
2007-04-11 07:09:48 51°15.096 2°45.486 8.3 321 10.9 102470 83
2007-04-11 07:09:53 51°15.097 2°45.458 8.3 321 10.9 102460 83
2007-04-11 07:09:58 51°15.098 2°45.429 8.5 321 10.9 102460 83
2007-04-11 07:10:03 51°15.099 2°45.401 8.2 320 10.9 102470 83
2007-04-11 07:10:08 51°15.101 2°45.373 8.2 321 10.9 102470 83
2007-04-11 07:10:13 51°15.102 2°45.345 8.3 321 10.9 102470 83
2007-04-11 07:10:18 51°15.103 2°45.317 8.2 321 10.9 102470 83
2007-04-11 07:10:22 51°15.104 2°45.294 8.7 320 10.9 102460 83
2007-04-11 07:10:28 51°15.106 2°45.261 8.9 322 10.9 102460 83
2007-04-11 07:10:32 51°15.107 2°45.238 8.2 321 10.9 102470 83
2007-04-11 07:10:38 51°15.108 2°45.204 8.5 321 10.9 102470 83
2007-04-11 07:10:43 51°15.109 2°45.176 8.1 321 10.9 102470 83
2007-04-11 07:10:48 51°15.11 2°45.148 8.7 321 10.9 102470 83
2007-04-11 07:10:53 51°15.111 2°45.12 8.2 321 10.9 102470 83
2007-04-11 07:10:58 51°15.113 2°45.092 8.1 321 10.9 102470 83
2007-04-11 07:11:03 51°15.113 2°45.064 7.8 320 10.9 102470 83
2007-04-11 07:11:08 51°15.115 2°45.036 7.8 322 10.9 102470 83
2007-04-11 07:11:13 51°15.116 2°45.008 8.2 320 10.9 102470 83
2007-04-11 07:11:18 51°15.117 2°44.98 8.1 321 10.9 102470 83
2007-04-11 07:11:23 51°15.119 2°44.952 8.3 321 10.9 102470 83
2007-04-11 07:11:28 51°15.12 2°44.924 7.7 322 10.9 102470 83
2007-04-11 07:11:33 51°15.121 2°44.895 7.7 321 10.9 102470 83
2007-04-11 07:11:38 51°15.122 2°44.867 7.5 322 10.9 102470 83
2007-04-11 07:11:42 51°15.123 2°44.844 7.4 321 10.9 102470 83
2007-04-11 07:11:48 51°15.124 2°44.811 7.5 322 10.9 102470 83
2007-04-11 07:11:53 51°15.125 2°44.782 7.5 322 10.9 102470 83
2007-04-11 07:11:58 51°15.126 2°44.754 7.7 322 10.9 102470 83
2007-04-11 07:12:03 51°15.128 2°44.726 7.8 323 10.9 102470 83
2007-04-11 07:12:08 51°15.129 2°44.698 6.9 323 10.9 102470 83
2007-04-11 07:12:12 51°15.13 2°44.675 7.5 324 10.9 102470 83
2007-04-11 07:12:18 51°15.132 2°44.641 7.4 323 10.9 102470 83
2007-04-11 07:12:22 51°15.133 2°44.619 7.2 323 10.9 102470 83
2007-04-11 07:12:28 51°15.134 2°44.585 7.6 323 10.9 102470 83
2007-04-11 07:12:33 51°15.136 2°44.557 7.1 324 10.9 102470 83
2007-04-11 07:12:38 51°15.137 2°44.529 7.7 324 10.9 102470 83
2007-04-11 07:12:42 51°15.138 2°44.507 7.7 323 10.9 102470 83
2007-04-11 07:12:48 51°15.139 2°44.474 7.6 324 10.9 102470 83
2007-04-11 07:12:53 51°15.14 2°44.445 7.5 322 11 102470 83
2007-04-11 07:12:58 51°15.142 2°44.418 7.5 323 11 102470 83
2007-04-11 07:13:03 51°15.143 2°44.39 7.6 323 11 102470 83
2007-04-11 07:13:08 51°15.145 2°44.362 8 323 11 102470 83
2007-04-11 07:13:13 51°15.146 2°44.334 8.2 323 11 102470 83
2007-04-11 07:13:18 51°15.147 2°44.306 7.6 321 11 102470 83
2007-04-11 07:13:23 51°15.148 2°44.278 8.2 322 11 102480 83
2007-04-11 07:13:28 51°15.15 2°44.25 7.7 322 11 102480 83
2007-04-11 07:13:33 51°15.151 2°44.222 8 322 11 102480 83
2007-04-11 07:13:38 51°15.152 2°44.194 7.7 323 11 102480 83
2007-04-11 07:13:42 51°15.153 2°44.172 7.2 324 11 102480 83
2007-04-11 07:13:48 51°15.155 2°44.138 7.3 325 11 102480 83
2007-04-11 07:13:53 51°15.156 2°44.11 7.3 324 11 102470 83
2007-04-11 07:13:58 51°15.158 2°44.082 7.9 323 11 102470 83
2007-04-11 07:14:02 51°15.159 2°44.06 7.5 323 11 102470 83
2007-04-11 07:14:08 51°15.16 2°44.026 8.4 321 11 102470 83
2007-04-11 07:14:13 51°15.161 2°43.998 7.7 321 10.9 102480 83
2007-04-11 07:14:18 51°15.163 2°43.97 8 320 10.9 102480 83
2007-04-11 07:14:23 51°15.164 2°43.943 8.6 321 11 102480 84
2007-04-11 07:14:28 51°15.165 2°43.915 8.5 321 11 102480 84
2007-04-11 07:14:33 51°15.167 2°43.887 8.4 321 11 102470 84
2007-04-11 07:14:38 51°15.168 2°43.859 8.6 320 11 102470 84
2007-04-11 07:14:42 51°15.169 2°43.837 8.3 321 11 102470 84
2007-04-11 07:14:48 51°15.17 2°43.804 8 320 11 102470 84
2007-04-11 07:14:52 51°15.171 2°43.781 8.5 321 11 102470 84
2007-04-11 07:14:58 51°15.173 2°43.748 8.1 320 11 102470 84
2007-04-11 07:15:03 51°15.174 2°43.72 8.1 321 11 102480 83
2007-04-11 07:15:08 51°15.176 2°43.692 8.5 319 11 102480 83
2007-04-11 07:15:13 51°15.177 2°43.664 8.8 321 11 102470 83
2007-04-11 07:15:18 51°15.178 2°43.637 8 321 11 102470 83
2007-04-11 07:15:22 51°15.179 2°43.615 8.6 320 10.9 102470 83
2007-04-11 07:15:28 51°15.181 2°43.581 8.2 320 10.9 102470 83
2007-04-11 07:15:33 51°15.182 2°43.554 8.2 320 11 102470 83
2007-04-11 07:15:38 51°15.183 2°43.526 8.1 320 11 102470 83
2007-04-11 07:15:42 51°15.183 2°43.503 8.4 321 10.9 102470 83
2007-04-11 07:15:48 51°15.184 2°43.47 8.2 321 10.9 102470 83
2007-04-11 07:15:53 51°15.186 2°43.442 8.5 321 10.9 102470 83
2007-04-11 07:15:58 51°15.186 2°43.414 8.5 321 10.9 102470 83
2007-04-11 07:16:02 51°15.188 2°43.392 8.3 321 11 102470 83
2007-04-11 07:16:08 51°15.189 2°43.358 7.6 321 11 102470 83
2007-04-11 07:16:13 51°15.191 2°43.33 8.3 322 11 102470 83
2007-04-11 07:16:18 51°15.192 2°43.302 7.7 322 11 102470 83
2007-04-11 07:16:22 51°15.192 2°43.28 7.7 322 11 102470 83
2007-04-11 07:16:28 51°15.194 2°43.247 7.5 322 11 102470 83
2007-04-11 07:16:33 51°15.195 2°43.219 7.5 322 10.9 102480 83
2007-04-11 07:16:38 51°15.197 2°43.191 7.7 323 10.9 102480 83
2007-04-11 07:16:42 51°15.198 2°43.169 7.3 323 10.9 102470 83
2007-04-11 07:16:48 51°15.199 2°43.135 7.1 323 10.9 102470 83
2007-04-11 07:16:53 51°15.2 2°43.107 7.3 322 10.9 102470 83
2007-04-11 07:16:58 51°15.202 2°43.079 7.6 323 10.9 102470 83
2007-04-11 07:17:03 51°15.203 2°43.051 7.3 322 11 102480 83
2007-04-11 07:17:08 51°15.204 2°43.024 8 321 11 102480 83
2007-04-11 07:17:13 51°15.206 2°42.996 7.8 322 11 102480 83
2007-04-11 07:17:18 51°15.207 2°42.968 7.7 322 11 102480 83
2007-04-11 07:17:23 51°15.208 2°42.94 7.7 321 11 102480 83
2007-04-11 07:17:28 51°15.21 2°42.912 7.6 323 11 102480 83
2007-04-11 07:17:33 51°15.211 2°42.884 7.5 321 11 102480 83
2007-04-11 07:17:37 51°15.212 2°42.862 7.7 322 11 102480 83
2007-04-11 07:17:43 51°15.213 2°42.828 8.1 323 11 102480 83
2007-04-11 07:17:48 51°15.215 2°42.8 8.2 321 11 102480 83
2007-04-11 07:17:53 51°15.216 2°42.772 8.5 322 11 102480 84
2007-04-11 07:17:58 51°15.217 2°42.744 8.2 321 11 102480 84
2007-04-11 07:18:03 51°15.218 2°42.716 8.5 322 11 102480 84
2007-04-11 07:18:08 51°15.219 2°42.688 7.9 323 11 102480 84
2007-04-11 07:18:13 51°15.221 2°42.66 7.7 322 11 102480 84
2007-04-11 07:18:18 51°15.221 2°42.632 8.3 322 11 102480 84
2007-04-11 07:18:22 51°15.223 2°42.61 8.1 320 11 102480 84
2007-04-11 07:18:28 51°15.224 2°42.576 8 321 11 102480 84
2007-04-11 07:18:33 51°15.225 2°42.548 8.4 321 11 102480 84
2007-04-11 07:18:38 51°15.226 2°42.519 8.3 321 11 102480 84
2007-04-11 07:18:42 51°15.227 2°42.497 8.3 321 11 102470 84
2007-04-11 07:18:48 51°15.228 2°42.463 7.8 322 11 102470 84
2007-04-11 07:18:53 51°15.23 2°42.435 8.3 322 11 102480 84
2007-04-11 07:18:58 51°15.231 2°42.407 8.1 322 11 102480 84
2007-04-11 07:19:02 51°15.232 2°42.385 7.7 323 11 102470 84
2007-04-11 07:19:08 51°15.233 2°42.351 7.9 323 11 102470 84
2007-04-11 07:19:13 51°15.234 2°42.323 8 322 11 102480 84
2007-04-11 07:19:18 51°15.235 2°42.295 7.4 322 11 102480 84
2007-04-11 07:19:23 51°15.236 2°42.267 8.1 322 11 102480 84
2007-04-11 07:19:28 51°15.237 2°42.239 7.5 322 11 102480 84
2007-04-11 07:19:33 51°15.238 2°42.211 7.4 323 10.9 102470 84
2007-04-11 07:19:38 51°15.238 2°42.183 7.3 321 10.9 102470 84
2007-04-11 07:19:43 51°15.239 2°42.154 7.6 322 10.9 102480 84
2007-04-11 07:19:48 51°15.24 2°42.126 7.3 321 10.9 102480 84
2007-04-11 07:19:53 51°15.241 2°42.098 7.5 322 11 102480 84
2007-04-11 07:19:58 51°15.242 2°42.069 7.7 321 11 102480 84
2007-04-11 07:20:03 51°15.243 2°42.041 7.7 323 11 102480 84
2007-04-11 07:20:08 51°15.244 2°42.012 7.4 323 11 102480 84
2007-04-11 07:20:13 51°15.245 2°41.984 7 323 10.9 102480 84
2007-04-11 07:20:18 51°15.246 2°41.956 7.2 323 10.9 102480 84
2007-04-11 07:20:22 51°15.246 2°41.933 7.5 323 11 102480 84
2007-04-11 07:20:28 51°15.248 2°41.899 7.5 323 11 102480 84
2007-04-11 07:20:33 51°15.248 2°41.871 7.3 323 11 102480 84
2007-04-11 07:20:38 51°15.25 2°41.842 7.4 322 11 102480 84
2007-04-11 07:20:42 51°15.25 2°41.82 7.6 322 11 102480 84
2007-04-11 07:20:48 51°15.252 2°41.785 7.4 324 11 102480 84
2007-04-11 07:20:53 51°15.252 2°41.757 7.8 321 11 102480 84
2007-04-11 07:20:58 51°15.253 2°41.728 7.8 322 11 102480 84
2007-04-11 07:21:03 51°15.255 2°41.7 8.1 322 11 102480 84
2007-04-11 07:21:08 51°15.255 2°41.671 8.3 323 11 102480 84
2007-04-11 07:21:13 51°15.256 2°41.643 8.2 323 11 102480 84
2007-04-11 07:21:18 51°15.257 2°41.614 8 323 11 102480 84
2007-04-11 07:21:22 51°15.258 2°41.592 8.4 322 11 102480 84
2007-04-11 07:21:28 51°15.259 2°41.557 8.7 322 11 102480 84
2007-04-11 07:21:33 51°15.26 2°41.529 7.9 323 11 102480 84
2007-04-11 07:21:38 51°15.261 2°41.5 8 323 11 102480 84
2007-04-11 07:21:42 51°15.262 2°41.477 7.9 323 11 102480 84
2007-04-11 07:21:48 51°15.263 2°41.443 8.3 323 11 102480 84
2007-04-11 07:21:53 51°15.264 2°41.415 7.9 323 11 102480 84
2007-04-11 07:21:58 51°15.265 2°41.387 7.7 322 11 102480 84
2007-04-11 07:22:03 51°15.266 2°41.358 8.3 323 11 102480 84
2007-04-11 07:22:08 51°15.267 2°41.33 7.7 322 11 102480 84
2007-04-11 07:22:13 51°15.267 2°41.301 7.7 323 11 102480 84
2007-04-11 07:22:18 51°15.269 2°41.273 7.6 323 11 102480 84
2007-04-11 07:22:22 51°15.269 2°41.25 7.8 323 11 102480 85
2007-04-11 07:22:28 51°15.27 2°41.216 7.8 321 11 102480 85
2007-04-11 07:22:33 51°15.271 2°41.188 8 322 11 102480 85
2007-04-11 07:22:38 51°15.272 2°41.16 7.5 321 11 102480 85
2007-04-11 07:22:43 51°15.273 2°41.131 7.7 322 11 102480 85
2007-04-11 07:22:48 51°15.274 2°41.103 8.3 322 11 102480 85
2007-04-11 07:22:53 51°15.275 2°41.074 8.2 322 11 102480 85
2007-04-11 07:22:58 51°15.276 2°41.046 7.8 321 11 102480 85
2007-04-11 07:23:02 51°15.277 2°41.023 8.5 322 11 102480 85
2007-04-11 07:23:08 51°15.279 2°40.989 8.3 323 11 102480 85
2007-04-11 07:23:13 51°15.279 2°40.96 7.7 321 11 102480 85
2007-04-11 07:23:18 51°15.281 2°40.932 8.4 323 11 102480 85
2007-04-11 07:23:23 51°15.282 2°40.903 7.9 322 11 102480 85
2007-04-11 07:23:27 51°15.282 2°40.881 7.6 324 11 102480 85
2007-04-11 07:23:33 51°15.284 2°40.847 8 322 10.9 102480 85
2007-04-11 07:23:38 51°15.285 2°40.818 7.6 323 10.9 102480 85
2007-04-11 07:23:43 51°15.286 2°40.789 8.5 323 10.9 102480 85
2007-04-11 07:23:48 51°15.287 2°40.761 7.8 322 10.9 102480 85
2007-04-11 07:23:53 51°15.288 2°40.732 8.4 321 10.9 102480 85
2007-04-11 07:23:58 51°15.289 2°40.704 8 320 10.9 102480 85
2007-04-11 07:24:03 51°15.291 2°40.676 8.1 321 10.9 102480 85
2007-04-11 07:24:08 51°15.292 2°40.647 8.4 321 10.9 102480 85
2007-04-11 07:24:13 51°15.293 2°40.619 8.3 321 10.9 102490 85
2007-04-11 07:24:18 51°15.294 2°40.59 8.7 319 10.9 102490 85
2007-04-11 07:24:22 51°15.295 2°40.567 8.4 320 10.9 102480 85
2007-04-11 07:24:28 51°15.297 2°40.533 8.4 321 10.9 102480 85
2007-04-11 07:24:33 51°15.298 2°40.504 8.7 322 10.9 102480 85
2007-04-11 07:24:38 51°15.299 2°40.476 8 322 10.9 102480 85
2007-04-11 07:24:43 51°15.3 2°40.447 8 322 10.9 102480 85
2007-04-11 07:24:48 51°15.302 2°40.419 6.8 325 10.9 102480 85
2007-04-11 07:24:53 51°15.303 2°40.39 7 324 10.9 102480 85
2007-04-11 07:24:58 51°15.304 2°40.361 7 326 10.9 102480 85
2007-04-11 07:25:02 51°15.305 2°40.338 7.8 322 10.9 102480 85
2007-04-11 07:25:08 51°15.306 2°40.304 8.1 323 10.9 102480 85
2007-04-11 07:25:13 51°15.308 2°40.275 7.8 323 10.9 102490 84
2007-04-11 07:25:18 51°15.309 2°40.247 7.7 322 10.9 102490 84
2007-04-11 07:25:22 51°15.31 2°40.224 7.8 323 10.9 102490 85
2007-04-11 07:25:28 51°15.311 2°40.189 7.6 323 10.9 102490 85
2007-04-11 07:25:33 51°15.313 2°40.161 7.7 322 10.9 102490 85
2007-04-11 07:25:38 51°15.314 2°40.132 8.1 322 10.9 102490 85
2007-04-11 07:25:42 51°15.315 2°40.109 7.5 324 10.9 102480 85
2007-04-11 07:25:48 51°15.316 2°40.075 8.2 323 10.9 102480 85
2007-04-11 07:25:53 51°15.318 2°40.046 8 323 10.8 102480 85
2007-04-11 07:25:58 51°15.319 2°40.018 7.9 322 10.8 102480 85
2007-04-11 07:26:03 51°15.321 2°39.989 8.1 323 10.9 102480 85
2007-04-11 07:26:08 51°15.322 2°39.961 7.5 323 10.9 102480 85
2007-04-11 07:26:13 51°15.323 2°39.933 8.1 321 10.9 102490 85
2007-04-11 07:26:18 51°15.324 2°39.904 8 322 10.9 102490 85
2007-04-11 07:26:23 51°15.326 2°39.876 7.8 322 10.9 102490 85
2007-04-11 07:26:28 51°15.327 2°39.848 7.6 322 10.9 102490 85
2007-04-11 07:26:33 51°15.328 2°39.82 8.6 321 10.9 102480 85
2007-04-11 07:26:38 51°15.33 2°39.792 8.4 321 10.9 102480 85
2007-04-11 07:26:42 51°15.331 2°39.769 7.9 322 10.9 102490 85
2007-04-11 07:26:48 51°15.332 2°39.735 8.5 321 10.9 102490 85
2007-04-11 07:26:53 51°15.334 2°39.708 8 321 10.9 102480 85
2007-04-11 07:26:57 51°15.335 2°39.685 8.7 321 10.9 102480 85
2007-04-11 07:27:03 51°15.336 2°39.651 7.9 320 10.9 102480 84
2007-04-11 07:27:08 51°15.338 2°39.624 8.4 319 10.9 102480 84
2007-04-11 07:27:13 51°15.339 2°39.596 8 320 10.9 102480 84
2007-04-11 07:27:17 51°15.34 2°39.573 7.9 320 10.9 102480 84
2007-04-11 07:27:23 51°15.342 2°39.54 8.2 319 10.9 102480 84
2007-04-11 07:27:28 51°15.343 2°39.512 8.3 319 10.9 102480 84
2007-04-11 07:27:33 51°15.344 2°39.484 8 320 10.9 102480 84
2007-04-11 07:27:37 51°15.346 2°39.462 8.4 320 10.9 102480 84
2007-04-11 07:27:43 51°15.347 2°39.428 8.7 318 10.9 102480 84
2007-04-11 07:27:48 51°15.348 2°39.4 7.7 321 10.9 102480 84
2007-04-11 07:27:53 51°15.35 2°39.372 8.4 318 10.9 102480 84
2007-04-11 07:27:58 51°15.351 2°39.344 8 320 10.9 102480 84
2007-04-11 07:28:02 51°15.352 2°39.322 8.1 320 10.9 102480 84
2007-04-11 07:28:08 51°15.354 2°39.288 8.1 320 10.9 102480 84
2007-04-11 07:28:13 51°15.355 2°39.261 7.5 321 10.9 102480 84
2007-04-11 07:28:18 51°15.357 2°39.233 7.8 321 10.9 102480 84
2007-04-11 07:28:23 51°15.358 2°39.205 7.7 323 10.9 102480 83
2007-04-11 07:28:28 51°15.359 2°39.177 7.7 321 10.9 102480 83
2007-04-11 07:28:33 51°15.36 2°39.149 8 321 10.9 102480 83
2007-04-11 07:28:38 51°15.361 2°39.121 7.7 321 10.9 102480 83
2007-04-11 07:28:43 51°15.362 2°39.093 7.7 321 10.9 102480 83
2007-04-11 07:28:48 51°15.363 2°39.065 7.2 320 10.9 102480 83
2007-04-11 07:28:53 51°15.364 2°39.036 7.4 322 10.9 102480 83
2007-04-11 07:28:58 51°15.365 2°39.008 7.3 322 10.9 102480 83
2007-04-11 07:29:03 51°15.366 2°38.98 7.5 321 10.9 102480 83
2007-04-11 07:29:08 51°15.367 2°38.952 7.2 321 10.9 102480 83
2007-04-11 07:29:13 51°15.369 2°38.924 7.6 321 10.9 102480 83
2007-04-11 07:29:18 51°15.37 2°38.895 7.6 322 10.9 102480 83
2007-04-11 07:29:23 51°15.371 2°38.867 7.2 321 10.9 102490 83
2007-04-11 07:29:28 51°15.372 2°38.839 7.6 322 10.9 102490 83
2007-04-11 07:29:33 51°15.372 2°38.811 7.1 322 10.9 102480 83
2007-04-11 07:29:38 51°15.373 2°38.782 7.4 321 10.9 102480 83
2007-04-11 07:29:43 51°15.373 2°38.754 7.2 321 10.9 102480 83
2007-04-11 07:29:48 51°15.375 2°38.725 7.2 323 10.9 102480 83
2007-04-11 07:29:52 51°15.375 2°38.702 7.3 322 10.9 102480 83
2007-04-11 07:29:58 51°15.376 2°38.668 6.7 323 10.9 102480 83
2007-04-11 07:30:02 51°15.377 2°38.645 7.1 323 10.9 102480 83
2007-04-11 07:30:08 51°15.378 2°38.611 7.3 324 10.9 102480 83
2007-04-11 07:30:13 51°15.378 2°38.583 7 322 10.9 102480 83
2007-04-11 07:30:18 51°15.379 2°38.554 7 325 10.9 102480 83
2007-04-11 07:30:22 51°15.38 2°38.531 7.4 320 10.9 102490 83
2007-04-11 07:30:28 51°15.381 2°38.497 7.5 321 10.9 102490 83
2007-04-11 07:30:33 51°15.382 2°38.469 7.1 319 10.9 102480 83
2007-04-11 07:30:38 51°15.383 2°38.44 7.5 320 10.9 102480 83
2007-04-11 07:30:43 51°15.384 2°38.412 6.9 319 10.9 102490 83
2007-04-11 07:30:48 51°15.385 2°38.384 7.3 322 10.9 102490 83
2007-04-11 07:30:53 51°15.385 2°38.355 6.8 321 10.9 102490 83
2007-04-11 07:30:58 51°15.386 2°38.327 6.5 321 10.9 102490 83
2007-04-11 07:31:03 51°15.387 2°38.299 6.9 323 10.9 102480 83
2007-04-11 07:31:08 51°15.388 2°38.27 6.9 322 10.9 102480 83
2007-04-11 07:31:13 51°15.389 2°38.242 7 322 10.9 102480 83
2007-04-11 07:31:18 51°15.39 2°38.214 7.2 320 10.9 102480 83
2007-04-11 07:31:23 51°15.391 2°38.186 7.6 321 10.9 102490 83
2007-04-11 07:31:28 51°15.392 2°38.157 7.4 321 10.9 102490 83
2007-04-11 07:31:33 51°15.393 2°38.129 7.9 320 10.9 102480 83
2007-04-11 07:31:38 51°15.394 2°38.101 8.3 321 10.9 102480 83
2007-04-11 07:31:43 51°15.395 2°38.073 8 320 10.9 102490 83
2007-04-11 07:31:48 51°15.396 2°38.044 8 320 10.9 102490 83
2007-04-11 07:31:53 51°15.397 2°38.016 8.7 317 10.9 102480 83
2007-04-11 07:31:58 51°15.398 2°37.988 8.1 319 10.9 102480 83
2007-04-11 07:32:03 51°15.399 2°37.96 8 319 10.9 102480 83
2007-04-11 07:32:08 51°15.4 2°37.932 8.4 320 10.9 102480 83
2007-04-11 07:32:13 51°15.401 2°37.903 8.7 320 10.9 102480 83
2007-04-11 07:32:18 51°15.402 2°37.875 8.3 319 10.9 102480 83
2007-04-11 07:32:22 51°15.402 2°37.853 8 319 10.9 102480 83
2007-04-11 07:32:28 51°15.403 2°37.819 7.9 321 10.9 102480 83
2007-04-11 07:32:33 51°15.404 2°37.79 8 319 10.9 102490 82
2007-04-11 07:32:38 51°15.405 2°37.762 7.9 320 10.9 102490 82
2007-04-11 07:32:43 51°15.406 2°37.734 8.3 320 10.9 102480 82
2007-04-11 07:32:48 51°15.407 2°37.705 7.9 320 10.9 102480 82
2007-04-11 07:32:53 51°15.408 2°37.677 8 320 10.9 102480 82
2007-04-11 07:32:58 51°15.409 2°37.649 8.1 321 10.9 102480 82
2007-04-11 07:33:03 51°15.41 2°37.62 7.9 320 10.9 102490 83
2007-04-11 07:33:08 51°15.411 2°37.592 8.3 320 10.9 102490 83
2007-04-11 07:33:13 51°15.412 2°37.563 7.8 320 10.9 102480 83
2007-04-11 07:33:18 51°15.413 2°37.535 7.8 320 10.9 102480 83
2007-04-11 07:33:23 51°15.414 2°37.507 8.2 320 10.9 102480 83
2007-04-11 07:33:28 51°15.416 2°37.478 7.7 319 10.9 102480 83
2007-04-11 07:33:33 51°15.416 2°37.45 7.9 320 10.9 102480 83
2007-04-11 07:33:38 51°15.417 2°37.422 7.9 321 10.9 102480 83
2007-04-11 07:33:43 51°15.418 2°37.393 8.1 320 10.9 102480 83
2007-04-11 07:33:48 51°15.42 2°37.365 8.1 320 10.9 102480 83
2007-04-11 07:33:53 51°15.42 2°37.337 8 320 10.9 102480 83
2007-04-11 07:33:58 51°15.422 2°37.308 8 320 10.9 102480 83
2007-04-11 07:34:02 51°15.422 2°37.286 8 321 10.9 102490 83
2007-04-11 07:34:08 51°15.424 2°37.251 7.7 322 10.9 102490 83
2007-04-11 07:34:13 51°15.425 2°37.223 7.4 322 10.9 102480 83
2007-04-11 07:34:18 51°15.426 2°37.194 7.2 322 10.9 102480 83
2007-04-11 07:34:22 51°15.427 2°37.172 7.5 324 10.9 102490 83
2007-04-11 07:34:28 51°15.429 2°37.138 7.4 322 10.9 102490 83
2007-04-11 07:34:33 51°15.431 2°37.109 7 324 10.9 102490 83
2007-04-11 07:34:38 51°15.433 2°37.081 7.2 321 10.9 102490 83
2007-04-11 07:34:43 51°15.435 2°37.052 7.5 321 10.9 102490 83
2007-04-11 07:34:48 51°15.438 2°37.024 8 321 10.9 102490 83
2007-04-11 07:34:53 51°15.439 2°36.996 7.8 321 10.9 102490 83
2007-04-11 07:34:58 51°15.441 2°36.967 7.8 320 10.9 102490 83
2007-04-11 07:35:03 51°15.443 2°36.939 7.3 321 10.9 102480 83
2007-04-11 07:35:08 51°15.445 2°36.911 7.8 321 10.9 102480 83
2007-04-11 07:35:13 51°15.447 2°36.883 7.3 322 10.9 102490 83
2007-04-11 07:35:18 51°15.449 2°36.855 7.3 322 10.9 102490 83
2007-04-11 07:35:22 51°15.451 2°36.833 7.3 323 10.9 102480 83
2007-04-11 07:35:28 51°15.453 2°36.799 7.5 322 10.9 102480 83
2007-04-11 07:35:33 51°15.455 2°36.77 7.6 322 10.9 102490 83
2007-04-11 07:35:38 51°15.456 2°36.742 7.3 321 10.9 102490 83
2007-04-11 07:35:43 51°15.458 2°36.713 8 320 10.9 102490 83
2007-04-11 07:35:48 51°15.46 2°36.685 7.5 321 10.9 102490 83
2007-04-11 07:35:53 51°15.462 2°36.656 7.9 320 10.9 102490 83
2007-04-11 07:35:58 51°15.464 2°36.628 8.1 320 10.9 102490 83
2007-04-11 07:36:03 51°15.466 2°36.599 7.7 321 10.9 102480 83
2007-04-11 07:36:08 51°15.468 2°36.571 8 320 10.9 102480 83
2007-04-11 07:36:13 51°15.469 2°36.543 8.1 320 10.9 102490 83
2007-04-11 07:36:18 51°15.471 2°36.514 7.8 320 10.9 102490 83
2007-04-11 07:36:23 51°15.473 2°36.486 8.4 319 10.9 102480 83
2007-04-11 07:36:28 51°15.475 2°36.458 8.1 319 10.9 102480 83
2007-04-11 07:36:33 51°15.477 2°36.429 8.1 319 10.9 102480 83
2007-04-11 07:36:38 51°15.479 2°36.401 7.6 319 10.9 102480 83
2007-04-11 07:36:42 51°15.48 2°36.378 8.5 319 10.9 102480 83
2007-04-11 07:36:48 51°15.482 2°36.344 8.6 319 10.9 102480 83
2007-04-11 07:36:53 51°15.484 2°36.316 8.3 319 10.9 102480 82
2007-04-11 07:36:58 51°15.486 2°36.288 8.6 320 10.9 102480 82
2007-04-11 07:37:03 51°15.489 2°36.259 8 320 10.9 102480 82
2007-04-11 07:37:08 51°15.491 2°36.231 7.9 319 10.9 102480 82
2007-04-11 07:37:13 51°15.493 2°36.202 8.4 319 10.9 102480 82
2007-04-11 07:37:18 51°15.495 2°36.174 8.3 319 10.9 102480 82
2007-04-11 07:37:23 51°15.497 2°36.146 8 320 10.9 102480 82
2007-04-11 07:37:28 51°15.5 2°36.117 7.9 319 10.9 102480 82
2007-04-11 07:37:32 51°15.501 2°36.095 8.5 319 11 102480 82
2007-04-11 07:37:38 51°15.503 2°36.06 8.3 320 11 102480 82
2007-04-11 07:37:43 51°15.505 2°36.032 8.4 319 10.9 102490 82
2007-04-11 07:37:48 51°15.507 2°36.003 8.1 320 10.9 102490 82
2007-04-11 07:37:53 51°15.509 2°35.975 7.7 321 11 102480 82
2007-04-11 07:37:58 51°15.511 2°35.947 7.5 321 11 102480 82
2007-04-11 07:38:03 51°15.513 2°35.918 7.6 320 11 102490 82
2007-04-11 07:38:08 51°15.516 2°35.89 7.6 320 11 102490 82
2007-04-11 07:38:13 51°15.518 2°35.861 7.4 320 11 102480 82
2007-04-11 07:38:18 51°15.52 2°35.832 7.8 321 11 102480 82
2007-04-11 07:38:23 51°15.522 2°35.804 7.5 321 11 102490 82
2007-04-11 07:38:28 51°15.524 2°35.775 7.8 323 11 102490 82
2007-04-11 07:38:33 51°15.525 2°35.747 7.2 320 11 102480 82
2007-04-11 07:38:38 51°15.528 2°35.718 7.4 322 11 102480 82
2007-04-11 07:38:42 51°15.529 2°35.695 7.6 321 11 102490 82
2007-04-11 07:38:48 51°15.531 2°35.66 7.7 322 11 102490 82
2007-04-11 07:38:53 51°15.533 2°35.632 7.2 323 11 102480 82
2007-04-11 07:38:58 51°15.535 2°35.603 7.7 323 11 102480 82
2007-04-11 07:39:02 51°15.537 2°35.58 8.2 323 11 102490 82
2007-04-11 07:39:08 51°15.539 2°35.545 7.8 321 11 102490 82
2007-04-11 07:39:13 51°15.541 2°35.517 8.3 321 11 102490 82
2007-04-11 07:39:18 51°15.543 2°35.488 8.2 322 11 102490 82
2007-04-11 07:39:22 51°15.545 2°35.465 8.4 322 11 102490 82
2007-04-11 07:39:28 51°15.547 2°35.43 8.1 321 11 102490 82
2007-04-11 07:39:33 51°15.55 2°35.401 8.1 322 11 102490 82
2007-04-11 07:39:38 51°15.552 2°35.372 7.9 322 11 102490 82
2007-04-11 07:39:43 51°15.555 2°35.343 8.4 322 11 102490 82
2007-04-11 07:39:48 51°15.557 2°35.315 8.3 321 11 102490 82
2007-04-11 07:39:53 51°15.559 2°35.286 8.3 322 11 102480 82
2007-04-11 07:39:58 51°15.561 2°35.257 8.5 323 11 102480 82
2007-04-11 07:40:03 51°15.564 2°35.228 8.4 322 11 102480 81
2007-04-11 07:40:08 51°15.566 2°35.199 8.3 322 11 102480 81
2007-04-11 07:40:13 51°15.568 2°35.17 7.9 323 11 102480 81
2007-04-11 07:40:18 51°15.571 2°35.142 8.7 322 11 102480 81
2007-04-11 07:40:23 51°15.573 2°35.112 8.7 323 11 102490 81
2007-04-11 07:40:28 51°15.575 2°35.084 8.4 324 11 102490 81
2007-04-11 07:40:33 51°15.578 2°35.055 8.3 324 11 102480 81
2007-04-11 07:40:38 51°15.58 2°35.026 7.9 323 11 102480 81
2007-04-11 07:40:43 51°15.582 2°34.997 8.2 323 11.1 102480 81
2007-04-11 07:40:48 51°15.585 2°34.968 8 324 11.1 102480 81
2007-04-11 07:40:53 51°15.587 2°34.94 8 323 11.1 102480 81
2007-04-11 07:40:58 51°15.589 2°34.911 8.1 323 11.1 102480 81
2007-04-11 07:41:03 51°15.591 2°34.882 7.8 324 11.1 102480 81
2007-04-11 07:41:08 51°15.593 2°34.854 7.7 323 11.1 102480 81
2007-04-11 07:41:13 51°15.595 2°34.825 8.2 324 11.1 102480 81
2007-04-11 07:41:18 51°15.597 2°34.796 8.1 322 11.1 102480 81
2007-04-11 07:41:22 51°15.599 2°34.773 8.2 324 11.1 102490 81
2007-04-11 07:41:28 51°15.602 2°34.739 7.7 324 11.1 102490 81
2007-04-11 07:41:33 51°15.604 2°34.71 8.3 323 11.1 102480 81
2007-04-11 07:41:38 51°15.607 2°34.681 7.8 324 11.1 102480 81
2007-04-11 07:41:42 51°15.609 2°34.658 8.3 323 11.1 102490 81
2007-04-11 07:41:48 51°15.612 2°34.623 7.8 324 11.1 102490 81
2007-04-11 07:41:53 51°15.614 2°34.594 7.4 324 11.1 102490 81
2007-04-11 07:41:58 51°15.617 2°34.566 7.9 325 11.1 102490 81
2007-04-11 07:42:02 51°15.619 2°34.542 7.3 323 11.1 102490 81
2007-04-11 07:42:08 51°15.622 2°34.508 7.8 324 11.1 102490 81
2007-04-11 07:42:13 51°15.625 2°34.479 8.1 325 11.1 102490 81
2007-04-11 07:42:18 51°15.627 2°34.45 7.8 325 11.1 102490 81
2007-04-11 07:42:23 51°15.63 2°34.422 7.4 325 11.1 102490 81
2007-04-11 07:42:28 51°15.632 2°34.393 7.9 325 11.1 102490 81
2007-04-11 07:42:33 51°15.634 2°34.364 7.6 325 11.1 102490 81
2007-04-11 07:42:38 51°15.637 2°34.335 7.7 325 11.1 102490 81
2007-04-11 07:42:43 51°15.639 2°34.307 7.6 325 11.1 102490 81
2007-04-11 07:42:48 51°15.642 2°34.278 7.3 325 11.1 102490 81
2007-04-11 07:42:53 51°15.645 2°34.249 7.2 325 11.1 102490 81
2007-04-11 07:42:58 51°15.647 2°34.22 7 327 11.1 102490 81
2007-04-11 07:43:02 51°15.649 2°34.197 6.7 327 11.1 102490 82
2007-04-11 07:43:08 51°15.652 2°34.163 6.8 326 11.1 102490 82
2007-04-11 07:43:13 51°15.655 2°34.134 6.8 328 11.1 102490 82
2007-04-11 07:43:18 51°15.657 2°34.106 6.6 327 11.1 102490 82
2007-04-11 07:43:22 51°15.66 2°34.083 6.6 329 11.1 102500 82
2007-04-11 07:43:28 51°15.662 2°34.048 6.4 329 11.1 102500 82
2007-04-11 07:43:33 51°15.665 2°34.02 6.2 330 11.1 102490 82
2007-04-11 07:43:38 51°15.667 2°33.991 6.6 329 11.1 102490 82
2007-04-11 07:43:42 51°15.669 2°33.968 6.4 331 11 102500 82
2007-04-11 07:43:48 51°15.672 2°33.933 6.6 330 11 102500 82
2007-04-11 07:43:53 51°15.674 2°33.905 6.3 331 11 102490 82
2007-04-11 07:43:58 51°15.676 2°33.876 6.2 331 11 102490 82
2007-04-11 07:44:03 51°15.679 2°33.848 6.3 332 11 102500 82
2007-04-11 07:44:08 51°15.681 2°33.819 6.3 332 11 102500 82
2007-04-11 07:44:13 51°15.684 2°33.791 6.5 331 11 102500 82
2007-04-11 07:44:18 51°15.686 2°33.763 6.6 331 11 102500 82
2007-04-11 07:44:22 51°15.689 2°33.74 6.4 331 11 102500 83
2007-04-11 07:44:28 51°15.692 2°33.705 6.3 331 11 102500 83
2007-04-11 07:44:33 51°15.695 2°33.677 6.3 331 11 102500 83
2007-04-11 07:44:38 51°15.697 2°33.649 6.6 330 11 102500 83
2007-04-11 07:44:43 51°15.699 2°33.62 6.7 332 11 102500 83
2007-04-11 07:44:48 51°15.702 2°33.592 6.3 333 11 102500 83
2007-04-11 07:44:52 51°15.704 2°33.569 6.4 331 11 102500 83
2007-04-11 07:44:57 51°15.706 2°33.541 6.5 332 11 102500 83
2007-04-11 07:45:03 51°15.709 2°33.506 6.9 332 11 102500 83
2007-04-11 07:45:08 51°15.711 2°33.478 6.8 332 11 102500 83
2007-04-11 07:45:13 51°15.714 2°33.45 6.4 332 10.9 102500 83
2007-04-11 07:45:18 51°15.715 2°33.421 6.9 330 10.9 102500 83
2007-04-11 07:45:22 51°15.717 2°33.398 7 329 10.9 102500 84
2007-04-11 07:45:28 51°15.72 2°33.364 6.9 328 10.9 102500 84
2007-04-11 07:45:33 51°15.721 2°33.335 7.1 329 10.9 102500 84
2007-04-11 07:45:38 51°15.724 2°33.306 7 329 10.9 102500 84
2007-04-11 07:45:42 51°15.725 2°33.283 7.2 330 10.9 102500 84
2007-04-11 07:45:48 51°15.727 2°33.249 7.5 330 10.9 102500 84
2007-04-11 07:45:53 51°15.728 2°33.22 7.4 330 10.9 102500 84
2007-04-11 07:45:58 51°15.729 2°33.191 7.3 330 10.9 102500 84
2007-04-11 07:46:03 51°15.731 2°33.161 7.4 332 10.9 102500 84
2007-04-11 07:46:08 51°15.732 2°33.132 7.3 330 10.9 102500 84
2007-04-11 07:46:13 51°15.733 2°33.102 7.5 329 10.8 102500 84
2007-04-11 07:46:18 51°15.734 2°33.073 7.7 331 10.8 102500 84
2007-04-11 07:46:22 51°15.736 2°33.05 7.2 331 10.8 102500 84
2007-04-11 07:46:28 51°15.737 2°33.014 7.6 330 10.8 102500 84
2007-04-11 07:46:33 51°15.74 2°32.985 7.5 330 10.8 102500 85
2007-04-11 07:46:38 51°15.741 2°32.955 7.6 329 10.8 102500 85
2007-04-11 07:46:43 51°15.743 2°32.926 7.6 330 10.8 102500 85
2007-04-11 07:46:48 51°15.744 2°32.896 7.7 330 10.8 102500 85
2007-04-11 07:46:53 51°15.747 2°32.867 7.4 330 10.8 102500 85
2007-04-11 07:46:58 51°15.748 2°32.838 7.4 329 10.8 102500 85
2007-04-11 07:47:03 51°15.751 2°32.808 7.5 329 10.8 102500 85
2007-04-11 07:47:08 51°15.752 2°32.779 7.2 327 10.8 102500 85
2007-04-11 07:47:13 51°15.754 2°32.75 7.7 328 10.8 102500 85
2007-04-11 07:47:18 51°15.756 2°32.721 7.3 327 10.8 102500 85
2007-04-11 07:47:23 51°15.759 2°32.691 7.9 328 10.8 102500 85
2007-04-11 07:47:28 51°15.761 2°32.662 7.1 327 10.8 102500 85
2007-04-11 07:47:33 51°15.762 2°32.633 7.6 328 10.7 102500 85
2007-04-11 07:47:38 51°15.764 2°32.604 7.3 328 10.7 102500 85
2007-04-11 07:47:43 51°15.766 2°32.574 7.4 328 10.7 102490 85
2007-04-11 07:47:48 51°15.768 2°32.545 7.6 330 10.7 102490 85
2007-04-11 07:47:53 51°15.77 2°32.516 7.7 330 10.7 102500 86
2007-04-11 07:47:58 51°15.771 2°32.486 7.6 330 10.7 102500 86
2007-04-11 07:48:02 51°15.773 2°32.462 7.9 331 10.7 102500 86
2007-04-11 07:48:08 51°15.774 2°32.427 7.6 333 10.7 102500 86
2007-04-11 07:48:13 51°15.776 2°32.398 7.7 333 10.7 102500 86
2007-04-11 07:48:18 51°15.777 2°32.369 7.7 333 10.7 102500 86
2007-04-11 07:48:23 51°15.778 2°32.339 8 334 10.7 102500 86
2007-04-11 07:48:28 51°15.779 2°32.31 8.1 335 10.7 102500 86